Guigues, Canada
Current Conditions -  °F | °C
As of 4:00 AM on Monday 22 Dec 2014 (Local Time) from CYXR Reporting Station
Overcast Overcast  
Wind Chill: 13°   Ceiling: 4200
Heat Index: 23°   Visibility: 9mi
Dew Point: 23°   Wind: 9mph
Humidity: 100%   Direction: 130°SE
Pressure: 30.19"   Gusts: NA
Location:  47.45°N, 79.43°W
Report Text: CYXR 220900Z AUTO 13008KT 9SM OVC042 M05/M05 A3019 RMK SLP243
Loading
Personal Weather Stations






























Interactive Weather Map New forecast layout! Learn more

10-Day Weather Forecast

Advertisements
Track Severe Weather on mobile